createdAt,value
2019-05-07T00:01:55.139Z,100075.63
2019-05-07T00:04:26.062Z,100072.01
2019-05-07T00:06:56.990Z,100071.98
2019-05-07T00:09:29.328Z,100070.55
2019-05-07T00:12:04.713Z,100071.94
2019-05-07T00:14:34.549Z,100075.86
2019-05-07T00:17:05.516Z,100073.92
2019-05-07T00:19:38.193Z,100073.07
2019-05-07T00:22:09.233Z,100068.86
2019-05-07T00:24:42.430Z,100069.70
2019-05-07T00:27:13.256Z,100073.34
2019-05-07T00:29:43.876Z,100068.59
2019-05-07T00:32:14.646Z,100074.67
2019-05-07T00:34:54.301Z,100074.93
2019-05-07T00:37:36.168Z,100075.80
2019-05-07T00:40:08.835Z,100066.56
2019-05-07T00:42:42.132Z,100068.02
2019-05-07T00:45:25.042Z,100073.05
2019-05-07T00:47:55.780Z,100073.07
2019-05-07T00:50:28.147Z,100067.18
2019-05-07T00:52:59.084Z,100066.56
2019-05-07T00:55:32.043Z,100063.19
2019-05-07T00:58:02.608Z,100060.67
2019-05-07T01:00:34.044Z,100064.59
2019-05-07T01:03:04.488Z,100058.13
2019-05-07T01:05:35.303Z,100055.88
2019-05-07T01:08:06.062Z,100061.77
2019-05-07T01:10:36.774Z,100056.72
2019-05-07T01:13:07.814Z,100057.02
2019-05-07T01:15:38.747Z,100057.28
2019-05-07T01:18:12.377Z,100050.83
2019-05-07T01:20:42.504Z,100049.41
2019-05-07T01:23:13.546Z,100054.75
2019-05-07T01:25:44.661Z,100043.58
2019-05-07T01:28:15.349Z,100043.58
2019-05-07T01:30:46.024Z,100032.15
2019-05-07T01:33:24.691Z,100034.59
2019-05-07T01:36:02.809Z,100033.03
2019-05-07T01:38:34.900Z,100031.89
2019-05-07T01:41:05.733Z,100040.58
2019-05-07T01:43:36.569Z,100036.09
2019-05-07T01:46:07.401Z,100034.97
2019-05-07T01:48:38.136Z,100029.32
2019-05-07T01:51:09.077Z,100038.06
2019-05-07T01:53:40.022Z,100043.66
2019-05-07T01:56:12.444Z,100039.95
2019-05-07T01:58:44.034Z,100043.87
2019-05-07T02:01:14.689Z,100039.97
2019-05-07T02:03:49.685Z,100030.50
2019-05-07T02:06:28.208Z,100035.55
2019-05-07T02:09:18.602Z,100033.32
2019-05-07T02:12:02.957Z,100034.47
2019-05-07T02:14:34.086Z,100034.15
2019-05-07T02:17:04.842Z,100033.86
2019-05-07T02:19:35.662Z,100035.28
2019-05-07T02:22:07.014Z,100030.27
2019-05-07T02:24:38.055Z,100033.87
2019-05-07T02:27:08.474Z,100033.59
2019-05-07T02:29:39.419Z,100032.75
2019-05-07T02:32:13.246Z,100033.89
2019-05-07T02:34:44.351Z,100029.23
2019-05-07T02:37:17.335Z,100030.14
2019-05-07T02:39:53.093Z,100029.03
2019-05-07T02:42:23.926Z,100032.91
2019-05-07T02:44:58.233Z,100037.97
2019-05-07T02:47:33.249Z,100035.45
2019-05-07T02:50:04.011Z,100031.27
2019-05-07T02:52:53.778Z,100034.13
2019-05-07T02:55:28.780Z,100031.92
2019-05-07T02:58:03.234Z,100035.02
2019-05-07T03:00:33.370Z,100033.95
2019-05-07T03:03:05.648Z,100034.83
2019-05-07T03:05:36.054Z,100033.42
2019-05-07T03:08:08.021Z,100030.63
2019-05-07T03:10:38.750Z,100034.33
2019-05-07T03:13:09.797Z,100025.09
2019-05-07T03:15:43.586Z,100028.75
2019-05-07T03:18:18.841Z,100024.47
2019-05-07T03:20:53.517Z,100022.00
2019-05-07T03:23:25.934Z,100022.85
2019-05-07T03:25:58.566Z,100026.52
2019-05-07T03:28:33.557Z,100029.88
2019-05-07T03:31:09.075Z,100028.47
2019-05-07T03:33:57.234Z,100038.06
2019-05-07T03:36:49.018Z,100034.98
2019-05-07T03:39:23.794Z,100033.02
2019-05-07T03:41:53.595Z,100037.46
2019-05-07T03:44:38.261Z,100043.41
2019-05-07T03:47:17.189Z,100038.06
2019-05-07T03:49:48.283Z,100043.14
2019-05-07T03:52:19.246Z,100041.55
2019-05-07T03:54:49.780Z,100047.76
2019-05-07T03:57:23.474Z,100046.39
2019-05-07T03:59:53.531Z,100046.67
2019-05-07T04:02:24.429Z,100052.28
2019-05-07T04:04:57.625Z,100059.84
2019-05-07T04:07:28.353Z,100051.16
2019-05-07T04:10:04.007Z,100050.64
2019-05-07T04:12:34.321Z,100055.13
2019-05-07T04:15:04.886Z,100049.81
2019-05-07T04:17:35.590Z,100046.73
2019-05-07T04:20:08.679Z,100046.25
2019-05-07T04:22:42.856Z,100051.31
2019-05-07T04:25:13.494Z,100045.72
2019-05-07T04:27:52.722Z,100050.53
2019-05-07T04:30:23.760Z,100054.42
2019-05-07T04:32:56.564Z,100053.63
2019-05-07T04:35:33.457Z,100052.23
2019-05-07T04:38:06.999Z,100051.42
2019-05-07T04:40:36.749Z,100051.09
2019-05-07T04:43:07.274Z,100050.83
2019-05-07T04:45:38.225Z,100050.31
2019-05-07T04:48:09.070Z,100050.03
2019-05-07T04:50:47.324Z,100039.69
2019-05-07T04:53:17.420Z,100045.93
2019-05-07T04:55:48.231Z,100034.41
2019-05-07T04:58:19.257Z,100040.31
2019-05-07T05:00:53.720Z,100042.84
2019-05-07T05:03:25.950Z,100042.58
2019-05-07T05:05:56.884Z,100040.10
2019-05-07T05:08:27.818Z,100042.94
2019-05-07T05:10:58.659Z,100042.07
2019-05-07T05:13:32.179Z,100035.06
2019-05-07T05:16:03.902Z,100040.11
2019-05-07T05:18:35.188Z,100044.63
2019-05-07T05:21:07.594Z,100047.14
2019-05-07T05:23:41.888Z,100044.32
2019-05-07T05:26:13.292Z,100040.94
2019-05-07T05:28:44.285Z,100044.27
2019-05-07T05:31:15.166Z,100051.59
2019-05-07T05:33:45.991Z,100035.56
2019-05-07T05:36:16.935Z,100040.06
2019-05-07T05:38:47.975Z,100031.33
2019-05-07T05:41:19.582Z,100028.84
2019-05-07T05:44:07.871Z,100031.06
2019-05-07T05:46:39.105Z,100015.62
2019-05-07T05:49:11.645Z,100033.60
2019-05-07T05:51:44.174Z,100029.98
2019-05-07T05:54:23.085Z,100031.09
2019-05-07T05:56:58.484Z,100030.80
2019-05-07T05:59:48.016Z,100037.25
2019-05-07T06:02:23.235Z,100031.91
2019-05-07T06:05:17.687Z,100027.14
2019-05-07T06:07:57.468Z,100009.36
2019-05-07T06:10:39.224Z,100013.27
2019-05-07T06:13:19.513Z,100014.83
2019-05-07T06:15:56.077Z,100011.86
2019-05-07T06:18:44.478Z,100010.81
2019-05-07T06:21:16.915Z,100008.29
2019-05-07T06:23:52.871Z,99998.66
2019-05-07T06:26:24.104Z,100002.50
2019-05-07T06:28:56.816Z,100000.20
2019-05-07T06:31:28.912Z,99999.81
2019-05-07T06:34:01.749Z,99995.66
2019-05-07T06:36:33.388Z,100000.45
2019-05-07T06:39:12.486Z,99994.77
2019-05-07T06:42:02.050Z,99995.97
2019-05-07T06:44:33.023Z,99991.53
2019-05-07T06:47:03.560Z,99997.55
2019-05-07T06:49:34.788Z,99995.67
2019-05-07T06:52:06.755Z,99996.02
2019-05-07T06:54:38.436Z,99992.17
2019-05-07T06:57:12.907Z,99989.91
2019-05-07T07:00:02.772Z,99988.64
2019-05-07T07:02:44.912Z,99983.45
2019-05-07T07:05:36.082Z,99987.41
2019-05-07T07:08:08.599Z,99988.64
2019-05-07T07:10:52.048Z,99982.85
2019-05-07T07:13:23.990Z,99982.46
2019-05-07T07:15:54.937Z,99982.94
2019-05-07T07:18:25.735Z,99971.54
2019-05-07T07:20:56.621Z,99980.09
2019-05-07T07:23:27.647Z,99976.92
2019-05-07T07:25:58.447Z,99972.36
2019-05-07T07:28:29.627Z,99972.27
2019-05-07T07:31:22.647Z,99982.42
2019-05-07T07:33:55.514Z,99975.99
2019-05-07T07:36:27.833Z,99969.65
2019-05-07T07:38:58.862Z,99967.28
2019-05-07T07:41:42.160Z,99973.28
2019-05-07T07:44:14.133Z,99972.57
2019-05-07T07:46:44.922Z,99959.49
2019-05-07T07:49:16.347Z,99959.22
2019-05-07T07:51:47.079Z,99961.98
2019-05-07T07:54:17.904Z,99951.72
2019-05-07T07:57:03.796Z,99953.25
2019-05-07T07:59:35.961Z,99950.60
2019-05-07T08:02:12.427Z,99936.06
2019-05-07T08:04:43.462Z,99924.85
2019-05-07T08:07:14.196Z,99929.61
2019-05-07T08:09:45.602Z,99925.87
2019-05-07T08:12:18.076Z,99923.83
2019-05-07T08:14:51.924Z,99923.35
2019-05-07T08:17:22.486Z,99924.14
2019-05-07T08:19:53.290Z,99932.70
2019-05-07T08:22:39.489Z,99932.37
2019-05-07T08:25:12.554Z,99939.89
2019-05-07T08:27:45.608Z,99915.16
2019-05-07T08:30:18.431Z,99940.73
2019-05-07T08:32:53.353Z,99932.70
2019-05-07T08:35:32.671Z,99938.23
2019-05-07T08:38:03.757Z,99928.08
2019-05-07T08:40:35.914Z,99931.98
2019-05-07T08:43:07.168Z,99917.05
2019-05-07T08:45:52.380Z,99936.36
2019-05-07T08:48:32.072Z,99938.60
2019-05-07T08:51:03.453Z,99927.97
2019-05-07T08:53:34.987Z,99919.31
2019-05-07T08:56:05.621Z,99913.89
2019-05-07T08:58:36.252Z,99910.86
2019-05-07T09:01:06.820Z,99900.70
2019-05-07T09:03:43.763Z,99900.39
2019-05-07T09:06:15.265Z,99897.13
2019-05-07T09:08:45.865Z,99908.36
2019-05-07T09:11:17.812Z,99895.31
2019-05-07T09:13:48.427Z,99913.28
2019-05-07T09:16:19.230Z,99913.46
2019-05-07T09:18:49.895Z,99911.53
2019-05-07T09:21:22.686Z,99907.95
2019-05-07T09:23:53.102Z,99903.08
2019-05-07T09:26:25.369Z,99895.72
2019-05-07T09:29:13.204Z,99898.42
2019-05-07T09:31:52.567Z,99908.77
2019-05-07T09:34:25.435Z,99893.27
2019-05-07T09:36:57.798Z,99890.53
2019-05-07T09:39:28.457Z,99882.84
2019-05-07T09:41:59.093Z,99887.30
2019-05-07T09:44:32.379Z,99887.03
2019-05-07T09:47:02.716Z,99882.20
2019-05-07T09:49:33.430Z,99880.02
2019-05-07T09:52:05.981Z,99875.64
2019-05-07T09:54:36.838Z,99879.19
2019-05-07T09:57:22.734Z,99878.35
2019-05-07T09:59:39.806Z,99877.11
2019-05-07T10:02:12.109Z,99876.05
2019-05-07T10:04:42.299Z,99877.33
2019-05-07T10:07:12.999Z,99878.98
2019-05-07T10:09:43.985Z,99881.86
2019-05-07T10:12:16.144Z,99877.48
2019-05-07T10:14:46.728Z,99873.76
2019-05-07T10:17:22.438Z,99892.53
2019-05-07T10:19:53.525Z,99878.06
2019-05-07T10:22:25.564Z,99876.36
2019-05-07T10:24:56.685Z,99869.64
2019-05-07T10:27:28.848Z,99866.32
2019-05-07T10:30:02.411Z,99859.94
2019-05-07T10:32:33.774Z,99864.31
2019-05-07T10:35:07.479Z,99862.80
2019-05-07T10:37:38.522Z,99861.46
2019-05-07T10:40:12.768Z,99854.16
2019-05-07T10:42:44.074Z,99844.48
2019-05-07T10:45:16.959Z,99855.30
2019-05-07T10:47:52.561Z,99859.02
2019-05-07T10:50:38.917Z,99857.29
2019-05-07T10:53:05.962Z,99849.11
2019-05-07T10:55:36.895Z,99847.58
2019-05-07T10:58:07.727Z,99854.66
2019-05-07T11:00:39.066Z,99851.28
2019-05-07T11:03:09.510Z,99857.90
2019-05-07T11:05:41.867Z,99843.65
2019-05-07T11:08:12.602Z,99845.92
2019-05-07T11:10:43.793Z,99850.92
2019-05-07T11:13:14.248Z,99841.79
2019-05-07T11:15:46.548Z,99847.11
2019-05-07T11:18:19.159Z,99845.22
2019-05-07T11:20:53.325Z,99842.27
2019-05-07T11:23:23.680Z,99844.94
2019-05-07T11:25:54.289Z,99839.14
2019-05-07T11:28:24.812Z,99842.94
2019-05-07T11:30:55.647Z,99834.14
2019-05-07T11:33:26.380Z,99842.83
2019-05-07T11:35:58.693Z,99835.61
2019-05-07T11:38:29.590Z,99835.73
2019-05-07T11:41:02.372Z,99835.88
2019-05-07T11:43:53.845Z,99836.59
2019-05-07T11:46:24.935Z,99836.09
2019-05-07T11:48:58.328Z,99834.02
2019-05-07T11:51:30.663Z,99839.47
2019-05-07T11:54:12.806Z,99837.29
2019-05-07T11:56:43.400Z,99841.52
2019-05-07T11:59:14.675Z,99834.31
2019-05-07T12:01:49.704Z,99835.13
2019-05-07T12:04:21.971Z,99831.28
2019-05-07T12:06:54.977Z,99832.27
2019-05-07T12:09:26.771Z,99831.56
2019-05-07T12:11:59.086Z,99837.06
2019-05-07T12:14:34.699Z,99834.52
2019-05-07T12:17:04.041Z,99839.23
2019-05-07T12:19:34.670Z,99842.66
2019-05-07T12:22:07.061Z,99836.95
2019-05-07T12:24:37.469Z,99841.57
2019-05-07T12:27:08.191Z,99832.36
2019-05-07T12:29:39.025Z,99827.05
2019-05-07T12:32:28.807Z,99829.02
2019-05-07T12:35:02.203Z,99824.34
2019-05-07T12:37:33.239Z,99809.22
2019-05-07T12:40:05.916Z,99813.11
2019-05-07T12:42:36.543Z,99808.84
2019-05-07T12:45:08.157Z,99798.55
2019-05-07T12:47:38.656Z,99798.52
2019-05-07T12:50:11.040Z,99788.92
2019-05-07T12:52:43.087Z,99788.11
2019-05-07T12:55:32.477Z,99783.23
2019-05-07T12:58:03.381Z,99778.42
2019-05-07T13:00:54.578Z,99782.55
2019-05-07T13:03:33.299Z,99772.81
2019-05-07T13:06:04.487Z,99772.53
2019-05-07T13:08:35.376Z,99774.62
2019-05-07T13:11:06.240Z,99767.31
2019-05-07T13:13:36.647Z,99758.41
2019-05-07T13:16:07.301Z,99751.25
2019-05-07T13:18:38.000Z,99756.03
2019-05-07T13:21:08.697Z,99760.79
2019-05-07T13:23:39.364Z,99747.16
2019-05-07T13:26:10.055Z,99745.14
2019-05-07T13:28:42.019Z,99744.80
2019-05-07T13:31:15.823Z,99741.48
2019-05-07T13:33:48.721Z,99751.05
2019-05-07T13:36:19.567Z,99744.80
2019-05-07T13:38:55.904Z,99744.53
2019-05-07T13:41:28.216Z,99751.59
2019-05-07T13:44:12.362Z,99758.32
2019-05-07T13:46:44.935Z,99756.82
2019-05-07T13:49:15.780Z,99759.27
2019-05-07T13:52:00.342Z,99767.19
2019-05-07T13:54:19.287Z,99768.80
2019-05-07T13:56:52.560Z,99770.57
2019-05-07T13:59:23.782Z,99779.00
2019-05-07T14:01:56.721Z,99783.79
2019-05-07T14:04:27.664Z,99782.47
2019-05-07T14:07:01.907Z,99788.23
2019-05-07T14:09:34.293Z,99785.53
2019-05-07T14:12:05.779Z,99782.41
2019-05-07T14:14:36.749Z,99784.19
2019-05-07T14:17:10.018Z,99782.80
2019-05-07T14:19:42.288Z,99783.36
2019-05-07T14:22:18.656Z,99782.54
2019-05-07T14:24:46.410Z,99781.98
2019-05-07T14:27:17.140Z,99784.13
2019-05-07T14:29:47.895Z,99791.66
2019-05-07T14:32:26.122Z,99799.95
2019-05-07T14:35:15.038Z,99795.42
2019-05-07T14:37:47.433Z,99796.10
2019-05-07T14:40:19.083Z,99801.23
2019-05-07T14:42:52.547Z,99807.61
2019-05-07T14:45:23.945Z,99810.87
2019-05-07T14:47:54.845Z,99806.78
2019-05-07T14:50:25.806Z,99827.91
2019-05-07T14:52:56.619Z,99816.74
2019-05-07T14:55:27.457Z,99812.88
2019-05-07T14:57:59.411Z,99823.02
2019-05-07T15:00:30.966Z,99832.44
2019-05-07T15:03:02.051Z,99824.20
2019-05-07T15:05:32.968Z,99826.45
2019-05-07T15:08:10.565Z,99822.59
2019-05-07T15:10:37.159Z,99810.44
2019-05-07T15:13:07.802Z,99816.62
2019-05-07T15:15:38.969Z,99812.86
2019-05-07T15:18:20.172Z,99805.23
2019-05-07T15:20:52.509Z,99804.03
2019-05-07T15:23:25.422Z,99809.70
2019-05-07T15:25:58.467Z,99818.92
2019-05-07T15:28:29.321Z,99820.06
2019-05-07T15:31:02.923Z,99826.00
2019-05-07T15:33:33.943Z,99831.34
2019-05-07T15:36:06.619Z,99842.28
2019-05-07T15:38:37.555Z,99846.91
2019-05-07T15:41:08.391Z,99855.77
2019-05-07T15:43:39.328Z,99865.95
2019-05-07T15:46:12.135Z,99883.05
2019-05-07T15:48:42.943Z,99883.95
2019-05-07T15:51:16.664Z,99890.45
2019-05-07T15:53:48.206Z,99903.45
2019-05-07T15:56:19.035Z,99917.50
2019-05-07T15:58:51.744Z,99932.44
2019-05-07T16:01:22.348Z,99938.34
2019-05-07T16:03:54.952Z,99937.54
2019-05-07T16:06:26.288Z,99955.52
2019-05-07T16:08:58.739Z,99956.66
2019-05-07T16:11:32.286Z,99949.58
2019-05-07T16:14:07.745Z,99960.25
2019-05-07T16:16:43.239Z,99975.39
2019-05-07T16:19:16.719Z,99953.80
2019-05-07T16:21:47.867Z,99949.28
2019-05-07T16:24:18.700Z,99959.36
2019-05-07T16:26:49.637Z,99951.75
2019-05-07T16:29:22.383Z,99950.83
2019-05-07T16:31:53.073Z,99926.67
2019-05-07T16:34:24.595Z,99921.06
2019-05-07T16:36:58.668Z,99923.59
2019-05-07T16:39:29.342Z,99922.19
2019-05-07T16:42:01.885Z,99930.88
2019-05-07T16:44:33.164Z,99929.66
2019-05-07T16:47:03.789Z,99932.69
2019-05-07T16:49:34.827Z,99927.06
2019-05-07T16:52:05.380Z,99929.30
2019-05-07T16:54:37.727Z,99921.12
2019-05-07T16:57:15.841Z,99925.02
2019-05-07T16:59:46.975Z,99927.19
2019-05-07T17:02:19.345Z,99940.27
2019-05-07T17:05:07.175Z,99923.14
2019-05-07T17:07:39.139Z,99929.25
2019-05-07T17:10:11.716Z,99928.33
2019-05-07T17:12:44.943Z,99926.45
2019-05-07T17:15:16.153Z,99925.89
2019-05-07T17:17:46.883Z,99933.22
2019-05-07T17:20:17.714Z,99923.41
2019-05-07T17:22:51.954Z,99924.22
2019-05-07T17:25:37.919Z,99935.98
2019-05-07T17:28:12.462Z,99940.73
2019-05-07T17:30:42.563Z,99933.09
2019-05-07T17:33:13.398Z,99932.70
2019-05-07T17:35:46.257Z,99936.36
2019-05-07T17:38:17.008Z,99937.72
2019-05-07T17:40:47.641Z,99934.62
2019-05-07T17:43:18.807Z,99937.98
2019-05-07T17:45:52.212Z,99937.69
2019-05-07T17:48:23.235Z,99939.97
2019-05-07T17:50:58.766Z,99944.53
2019-05-07T17:53:31.872Z,99943.45
2019-05-07T17:56:02.684Z,99949.59
2019-05-07T17:58:33.745Z,99947.65
2019-05-07T18:01:05.488Z,99952.81
2019-05-07T18:03:37.853Z,99952.25
2019-05-07T18:06:08.894Z,99952.83
2019-05-07T18:08:39.727Z,99947.48
2019-05-07T18:11:20.903Z,99951.34
2019-05-07T18:13:44.310Z,99948.78
2019-05-07T18:16:32.667Z,99949.05
2019-05-07T18:19:03.508Z,99948.73
2019-05-07T18:21:36.835Z,99951.00
2019-05-07T18:24:13.823Z,99951.52
2019-05-07T18:26:42.292Z,99947.27
2019-05-07T18:29:14.259Z,99939.93
2019-05-07T18:31:50.531Z,99945.16
2019-05-07T18:34:21.419Z,99951.79
2019-05-07T18:36:53.164Z,99947.27
2019-05-07T18:39:24.805Z,99949.98
2019-05-07T18:41:56.141Z,99947.58
2019-05-07T18:44:27.385Z,99946.46
2019-05-07T18:46:58.740Z,99948.41
2019-05-07T18:49:29.989Z,99951.23
2019-05-07T18:52:02.860Z,99949.55
2019-05-07T18:54:35.588Z,99949.28
2019-05-07T18:57:06.445Z,99944.50
2019-05-07T18:59:37.817Z,99948.98
2019-05-07T19:02:11.072Z,99943.07
2019-05-07T19:04:42.480Z,99941.69
2019-05-07T19:07:13.375Z,99937.76
2019-05-07T19:09:44.205Z,99936.90
2019-05-07T19:12:17.051Z,99941.27
2019-05-07T19:14:48.242Z,99940.98
2019-05-07T19:17:18.962Z,99934.19
2019-05-07T19:19:49.900Z,99930.52
2019-05-07T19:22:22.250Z,99931.83
2019-05-07T19:24:52.902Z,99933.48
2019-05-07T19:27:24.071Z,99935.23
2019-05-07T19:29:54.982Z,99934.97
2019-05-07T19:32:25.917Z,99935.81
2019-05-07T19:34:56.855Z,99929.30
2019-05-07T19:37:27.804Z,99925.63
2019-05-07T19:40:01.870Z,99918.52
2019-05-07T19:42:32.004Z,99915.19
2019-05-07T19:45:03.166Z,99918.80
2019-05-07T19:47:33.997Z,99915.26
2019-05-07T19:50:06.369Z,99908.15
2019-05-07T19:52:37.101Z,99912.66
2019-05-07T19:55:08.037Z,99914.59
2019-05-07T19:57:52.439Z,99923.98
2019-05-07T20:00:24.352Z,99930.48
2019-05-07T20:03:00.611Z,99932.77
2019-05-07T20:05:32.683Z,99937.55
2019-05-07T20:08:04.707Z,99941.95
2019-05-07T20:10:37.828Z,99945.01
2019-05-07T20:13:08.895Z,99950.13
2019-05-07T20:15:42.583Z,99947.27
2019-05-07T20:18:13.918Z,99957.27
2019-05-07T20:20:44.956Z,99961.08
2019-05-07T20:23:17.226Z,99962.95
2019-05-07T20:25:48.919Z,99958.47
2019-05-07T20:28:21.807Z,99953.89
2019-05-07T20:30:53.662Z,99959.69
2019-05-07T20:33:25.069Z,99958.92
2019-05-07T20:35:56.007Z,99969.63
2019-05-07T20:38:26.655Z,99976.16
2019-05-07T20:40:57.473Z,99982.62
2019-05-07T20:43:28.131Z,99986.29
2019-05-07T20:46:00.063Z,99994.27
2019-05-07T20:48:32.521Z,99994.36
2019-05-07T20:51:03.818Z,99998.23
2019-05-07T20:53:52.461Z,100000.83
2019-05-07T20:56:32.233Z,100000.77
2019-05-07T20:59:03.217Z,100007.20
2019-05-07T21:01:33.933Z,99999.92
2019-05-07T21:04:04.927Z,100007.17
2019-05-07T21:06:35.524Z,100002.22
2019-05-07T21:09:08.502Z,100009.64
2019-05-07T21:11:39.333Z,100010.63
2019-05-07T21:14:12.091Z,100011.41
2019-05-07T21:16:42.797Z,100014.43
2019-05-07T21:19:13.917Z,100020.08
2019-05-07T21:21:44.840Z,100018.09
2019-05-07T21:24:18.026Z,100017.91
2019-05-07T21:26:48.796Z,100027.65
2019-05-07T21:29:19.683Z,100027.36
2019-05-07T21:31:52.399Z,100023.33
2019-05-07T21:34:23.402Z,100027.20
2019-05-07T21:36:54.422Z,100027.91
2019-05-07T21:39:25.486Z,100036.27
2019-05-07T21:41:56.284Z,100031.29
2019-05-07T21:44:27.354Z,100032.36
2019-05-07T21:46:58.291Z,100033.37
2019-05-07T21:49:29.605Z,100026.22
2019-05-07T21:52:01.946Z,100036.71
2019-05-07T21:54:38.887Z,100036.25
2019-05-07T21:57:14.234Z,100046.27
2019-05-07T21:59:45.370Z,100042.88
2019-05-07T22:02:26.749Z,100042.62
2019-05-07T22:04:57.435Z,100034.02
2019-05-07T22:07:28.452Z,100023.38
2019-05-07T22:09:59.462Z,100031.48
2019-05-07T22:12:32.004Z,100029.66
2019-05-07T22:15:04.492Z,100037.14
2019-05-07T22:17:35.449Z,100045.88
2019-05-07T22:20:07.409Z,100036.45
2019-05-07T22:22:39.166Z,100029.44
2019-05-07T22:25:09.813Z,100023.20
2019-05-07T22:27:42.178Z,100019.79
2019-05-07T22:30:14.409Z,100015.73
2019-05-07T22:32:55.611Z,100010.98
2019-05-07T22:35:33.933Z,100012.12
2019-05-07T22:38:07.013Z,100012.88
2019-05-07T22:40:38.665Z,100018.75
2019-05-07T22:43:09.296Z,100012.41
2019-05-07T22:45:40.333Z,100021.61
2019-05-07T22:48:13.120Z,100023.56
2019-05-07T22:50:44.359Z,100026.09
2019-05-07T22:53:15.310Z,100029.63
2019-05-07T22:55:46.177Z,100032.00
2019-05-07T22:58:21.980Z,100029.75
2019-05-07T23:01:06.336Z,100032.58
2019-05-07T23:03:37.376Z,100040.12
2019-05-07T23:06:08.213Z,100051.55
2019-05-07T23:08:39.450Z,100056.72
2019-05-07T23:11:12.200Z,100050.87
2019-05-07T23:13:42.816Z,100060.72
2019-05-07T23:16:13.804Z,100068.39
2019-05-07T23:18:44.846Z,100078.50
2019-05-07T23:21:17.111Z,100074.05
2019-05-07T23:23:48.045Z,100083.17
2019-05-07T23:26:19.635Z,100077.87
2019-05-07T23:28:51.874Z,100081.26
2019-05-07T23:31:23.046Z,100082.07
2019-05-07T23:33:54.560Z,100096.23
2019-05-07T23:36:25.463Z,100103.73
2019-05-07T23:38:56.473Z,100116.89
2019-05-07T23:41:35.048Z,100121.08
2019-05-07T23:44:16.739Z,100124.78
2019-05-07T23:46:47.677Z,100123.43
2019-05-07T23:49:19.874Z,100120.70
2019-05-07T23:51:52.806Z,100109.70
2019-05-07T23:54:24.909Z,100098.84
2019-05-07T23:57:05.953Z,100098.95
2019-05-07T23:59:27.695Z,100105.94
